sensor_id;sensor_type;location;lat;lon;timestamp;P1;durP1;ratioP1;P2;durP2;ratioP2
66626;SDS011;53498;50.422;14.912;2022-10-16T00:00:38;14.05;;;8.02;;
66626;SDS011;53498;50.422;14.912;2022-10-16T00:03:25;11.93;;;7.80;;
66626;SDS011;53498;50.422;14.912;2022-10-16T00:05:50;14.23;;;9.13;;
66626;SDS011;53498;50.422;14.912;2022-10-16T00:08:16;12.23;;;7.70;;
66626;SDS011;53498;50.422;14.912;2022-10-16T00:10:42;12.57;;;8.15;;
66626;SDS011;53498;50.422;14.912;2022-10-16T00:13:07;12.05;;;8.60;;
66626;SDS011;53498;50.422;14.912;2022-10-16T00:15:34;14.82;;;9.02;;
66626;SDS011;53498;50.422;14.912;2022-10-16T00:18:04;13.18;;;9.00;;
66626;SDS011;53498;50.422;14.912;2022-10-16T00:20:30;14.38;;;8.63;;
66626;SDS011;53498;50.422;14.912;2022-10-16T00:22:59;15.95;;;9.77;;
66626;SDS011;53498;50.422;14.912;2022-10-16T00:25:24;14.85;;;9.48;;
66626;SDS011;53498;50.422;14.912;2022-10-16T00:27:53;12.55;;;8.88;;
66626;SDS011;53498;50.422;14.912;2022-10-16T00:30:18;12.30;;;8.25;;
66626;SDS011;53498;50.422;14.912;2022-10-16T00:32:44;15.75;;;9.23;;
66626;SDS011;53498;50.422;14.912;2022-10-16T00:35:09;12.63;;;9.15;;
66626;SDS011;53498;50.422;14.912;2022-10-16T00:37:35;15.07;;;9.15;;
66626;SDS011;53498;50.422;14.912;2022-10-16T00:40:00;12.75;;;7.97;;
66626;SDS011;53498;50.422;14.912;2022-10-16T00:42:26;12.50;;;8.27;;
66626;SDS011;53498;50.422;14.912;2022-10-16T00:49:58;15.50;;;9.52;;
66626;SDS011;53498;50.422;14.912;2022-10-16T00:52:41;12.43;;;7.95;;
66626;SDS011;53498;50.422;14.912;2022-10-16T00:55:11;13.63;;;8.45;;
66626;SDS011;53498;50.422;14.912;2022-10-16T00:57:37;11.60;;;8.27;;
66626;SDS011;53498;50.422;14.912;2022-10-16T01:00:05;16.05;;;7.18;;
66626;SDS011;53498;50.422;14.912;2022-10-16T01:02:32;13.95;;;7.55;;
66626;SDS011;53498;50.422;14.912;2022-10-16T01:04:58;10.25;;;7.45;;
66626;SDS011;53498;50.422;14.912;2022-10-16T01:10:25;10.90;;;7.80;;
66626;SDS011;53498;50.422;14.912;2022-10-16T01:13:07;14.60;;;7.90;;
66626;SDS011;53498;50.422;14.912;2022-10-16T01:15:58;11.57;;;7.70;;
66626;SDS011;53498;50.422;14.912;2022-10-16T01:18:43;12.70;;;7.90;;
66626;SDS011;53498;50.422;14.912;2022-10-16T01:29:39;12.43;;;8.13;;
66626;SDS011;53498;50.422;14.912;2022-10-16T01:32:16;18.55;;;9.23;;
66626;SDS011;53498;50.422;14.912;2022-10-16T01:34:51;13.80;;;9.15;;
66626;SDS011;53498;50.422;14.912;2022-10-16T01:37:37;13.30;;;8.88;;
66626;SDS011;53498;50.422;14.912;2022-10-16T01:40:07;12.27;;;7.88;;
66626;SDS011;53498;50.422;14.912;2022-10-16T01:42:42;13.57;;;7.25;;
66626;SDS011;53498;50.422;14.912;2022-10-16T01:45:12;11.50;;;8.00;;
66626;SDS011;53498;50.422;14.912;2022-10-16T01:47:40;12.23;;;7.88;;
66626;SDS011;53498;50.422;14.912;2022-10-16T01:50:08;12.05;;;7.72;;
66626;SDS011;53498;50.422;14.912;2022-10-16T01:52:35;13.40;;;8.70;;
66626;SDS011;53498;50.422;14.912;2022-10-16T01:55:04;11.20;;;8.05;;
66626;SDS011;53498;50.422;14.912;2022-10-16T01:57:33;12.77;;;7.78;;
66626;SDS011;53498;50.422;14.912;2022-10-16T02:00:08;13.20;;;8.80;;
66626;SDS011;53498;50.422;14.912;2022-10-16T02:02:36;14.45;;;8.35;;
66626;SDS011;53498;50.422;14.912;2022-10-16T02:05:11;10.93;;;7.80;;
66626;SDS011;53498;50.422;14.912;2022-10-16T02:07:41;15.48;;;8.38;;
66626;SDS011;53498;50.422;14.912;2022-10-16T02:10:07;14.55;;;9.40;;
66626;SDS011;53498;50.422;14.912;2022-10-16T02:12:34;14.52;;;9.00;;
66626;SDS011;53498;50.422;14.912;2022-10-16T02:15:05;12.93;;;8.30;;
66626;SDS011;53498;50.422;14.912;2022-10-16T02:17:31;16.08;;;8.52;;
66626;SDS011;53498;50.422;14.912;2022-10-16T02:19:57;13.45;;;9.18;;
66626;SDS011;53498;50.422;14.912;2022-10-16T02:22:28;11.73;;;7.90;;
66626;SDS011;53498;50.422;14.912;2022-10-16T02:25:10;13.75;;;8.93;;
66626;SDS011;53498;50.422;14.912;2022-10-16T02:28:03;14.13;;;8.00;;
66626;SDS011;53498;50.422;14.912;2022-10-16T02:30:54;11.63;;;8.65;;
66626;SDS011;53498;50.422;14.912;2022-10-16T02:33:24;12.38;;;7.95;;
66626;SDS011;53498;50.422;14.912;2022-10-16T02:35:51;13.30;;;7.85;;
66626;SDS011;53498;50.422;14.912;2022-10-16T02:38:18;11.60;;;8.18;;
66626;SDS011;53498;50.422;14.912;2022-10-16T02:40:45;16.45;;;9.00;;
66626;SDS011;53498;50.422;14.912;2022-10-16T02:43:11;13.05;;;7.53;;
66626;SDS011;53498;50.422;14.912;2022-10-16T02:45:37;12.90;;;7.55;;
66626;SDS011;53498;50.422;14.912;2022-10-16T02:48:03;12.80;;;8.02;;
66626;SDS011;53498;50.422;14.912;2022-10-16T02:50:29;11.60;;;8.15;;
66626;SDS011;53498;50.422;14.912;2022-10-16T02:52:55;11.02;;;7.93;;
66626;SDS011;53498;50.422;14.912;2022-10-16T02:55:20;11.45;;;8.07;;
66626;SDS011;53498;50.422;14.912;2022-10-16T02:57:46;12.75;;;7.93;;
66626;SDS011;53498;50.422;14.912;2022-10-16T03:00:12;13.77;;;8.23;;
66626;SDS011;53498;50.422;14.912;2022-10-16T03:02:39;12.88;;;7.90;;
66626;SDS011;53498;50.422;14.912;2022-10-16T03:05:05;14.27;;;8.80;;
66626;SDS011;53498;50.422;14.912;2022-10-16T03:07:31;13.52;;;8.77;;
66626;SDS011;53498;50.422;14.912;2022-10-16T03:09:57;13.85;;;8.57;;
66626;SDS011;53498;50.422;14.912;2022-10-16T03:12:28;12.98;;;7.85;;
66626;SDS011;53498;50.422;14.912;2022-10-16T03:14:53;13.52;;;8.48;;
66626;SDS011;53498;50.422;14.912;2022-10-16T03:17:22;14.55;;;8.40;;
66626;SDS011;53498;50.422;14.912;2022-10-16T03:19:47;14.07;;;8.65;;
66626;SDS011;53498;50.422;14.912;2022-10-16T03:22:13;14.20;;;8.63;;
66626;SDS011;53498;50.422;14.912;2022-10-16T03:24:38;15.98;;;8.55;;
66626;SDS011;53498;50.422;14.912;2022-10-16T03:27:04;11.55;;;7.53;;
66626;SDS011;53498;50.422;14.912;2022-10-16T03:29:30;11.38;;;7.72;;
66626;SDS011;53498;50.422;14.912;2022-10-16T03:31:57;11.98;;;8.55;;
66626;SDS011;53498;50.422;14.912;2022-10-16T03:34:22;14.25;;;8.75;;
66626;SDS011;53498;50.422;14.912;2022-10-16T03:36:48;12.88;;;7.65;;
66626;SDS011;53498;50.422;14.912;2022-10-16T03:39:13;10.48;;;7.35;;
66626;SDS011;53498;50.422;14.912;2022-10-16T03:41:39;13.73;;;8.13;;
66626;SDS011;53498;50.422;14.912;2022-10-16T03:44:04;15.00;;;9.18;;
66626;SDS011;53498;50.422;14.912;2022-10-16T03:46:31;12.52;;;8.48;;
66626;SDS011;53498;50.422;14.912;2022-10-16T03:48:56;13.93;;;7.80;;
66626;SDS011;53498;50.422;14.912;2022-10-16T03:51:22;12.77;;;7.88;;
66626;SDS011;53498;50.422;14.912;2022-10-16T03:53:47;14.20;;;7.85;;
66626;SDS011;53498;50.422;14.912;2022-10-16T03:56:13;13.48;;;7.75;;
66626;SDS011;53498;50.422;14.912;2022-10-16T03:58:38;12.15;;;7.72;;
66626;SDS011;53498;50.422;14.912;2022-10-16T04:01:04;16.90;;;9.45;;
66626;SDS011;53498;50.422;14.912;2022-10-16T04:03:29;12.15;;;7.75;;
66626;SDS011;53498;50.422;14.912;2022-10-16T04:05:57;11.93;;;7.57;;
66626;SDS011;53498;50.422;14.912;2022-10-16T04:08:23;12.38;;;8.00;;
66626;SDS011;53498;50.422;14.912;2022-10-16T04:10:49;10.95;;;7.47;;
66626;SDS011;53498;50.422;14.912;2022-10-16T04:13:14;12.75;;;7.70;;
66626;SDS011;53498;50.422;14.912;2022-10-16T04:15:40;12.80;;;7.32;;
66626;SDS011;53498;50.422;14.912;2022-10-16T04:18:06;11.70;;;7.63;;
66626;SDS011;53498;50.422;14.912;2022-10-16T04:20:32;9.38;;;6.65;;
66626;SDS011;53498;50.422;14.912;2022-10-16T04:23:01;12.95;;;7.32;;
66626;SDS011;53498;50.422;14.912;2022-10-16T04:25:27;13.00;;;8.13;;
66626;SDS011;53498;50.422;14.912;2022-10-16T04:27:53;11.93;;;7.95;;
66626;SDS011;53498;50.422;14.912;2022-10-16T04:30:20;11.45;;;7.43;;
66626;SDS011;53498;50.422;14.912;2022-10-16T04:32:49;10.63;;;7.63;;
66626;SDS011;53498;50.422;14.912;2022-10-16T04:35:16;12.65;;;7.40;;
66626;SDS011;53498;50.422;14.912;2022-10-16T04:37:45;12.65;;;7.75;;
66626;SDS011;53498;50.422;14.912;2022-10-16T04:40:11;12.85;;;7.75;;
66626;SDS011;53498;50.422;14.912;2022-10-16T04:42:37;13.57;;;7.75;;
66626;SDS011;53498;50.422;14.912;2022-10-16T04:45:03;11.43;;;7.30;;
66626;SDS011;53498;50.422;14.912;2022-10-16T04:47:29;14.13;;;7.05;;
66626;SDS011;53498;50.422;14.912;2022-10-16T04:49:55;11.80;;;7.20;;
66626;SDS011;53498;50.422;14.912;2022-10-16T04:52:21;11.38;;;7.15;;
66626;SDS011;53498;50.422;14.912;2022-10-16T04:54:49;12.88;;;7.43;;
66626;SDS011;53498;50.422;14.912;2022-10-16T04:57:15;11.27;;;7.50;;
66626;SDS011;53498;50.422;14.912;2022-10-16T04:59:42;9.85;;;7.00;;
66626;SDS011;53498;50.422;14.912;2022-10-16T05:02:07;12.07;;;8.05;;
66626;SDS011;53498;50.422;14.912;2022-10-16T05:04:33;14.35;;;7.60;;
66626;SDS011;53498;50.422;14.912;2022-10-16T05:06:58;11.85;;;8.10;;
66626;SDS011;53498;50.422;14.912;2022-10-16T05:09:24;13.05;;;7.65;;
66626;SDS011;53498;50.422;14.912;2022-10-16T05:11:49;11.38;;;7.28;;
66626;SDS011;53498;50.422;14.912;2022-10-16T05:14:15;9.82;;;6.57;;
66626;SDS011;53498;50.422;14.912;2022-10-16T05:16:40;10.80;;;6.82;;
66626;SDS011;53498;50.422;14.912;2022-10-16T05:19:06;9.55;;;6.55;;
66626;SDS011;53498;50.422;14.912;2022-10-16T05:21:31;8.35;;;6.35;;
66626;SDS011;53498;50.422;14.912;2022-10-16T05:23:57;10.02;;;6.57;;
66626;SDS011;53498;50.422;14.912;2022-10-16T05:26:22;9.90;;;6.63;;
66626;SDS011;53498;50.422;14.912;2022-10-16T05:28:49;10.25;;;6.75;;
66626;SDS011;53498;50.422;14.912;2022-10-16T05:31:15;12.07;;;7.07;;
66626;SDS011;53498;50.422;14.912;2022-10-16T05:33:40;11.70;;;5.93;;
66626;SDS011;53498;50.422;14.912;2022-10-16T05:36:07;9.82;;;5.72;;
66626;SDS011;53498;50.422;14.912;2022-10-16T05:38:34;8.85;;;6.03;;
66626;SDS011;53498;50.422;14.912;2022-10-16T05:41:01;7.43;;;5.65;;
66626;SDS011;53498;50.422;14.912;2022-10-16T05:43:27;9.10;;;5.93;;
66626;SDS011;53498;50.422;14.912;2022-10-16T05:45:57;9.20;;;6.80;;
66626;SDS011;53498;50.422;14.912;2022-10-16T05:48:24;10.30;;;6.22;;
66626;SDS011;53498;50.422;14.912;2022-10-16T05:51:03;9.80;;;6.15;;
66626;SDS011;53498;50.422;14.912;2022-10-16T05:53:35;9.43;;;6.28;;
66626;SDS011;53498;50.422;14.912;2022-10-16T05:56:02;8.48;;;6.10;;
66626;SDS011;53498;50.422;14.912;2022-10-16T05:58:30;14.65;;;7.50;;
66626;SDS011;53498;50.422;14.912;2022-10-16T06:00:58;7.40;;;4.53;;
66626;SDS011;53498;50.422;14.912;2022-10-16T06:03:25;6.95;;;4.90;;
66626;SDS011;53498;50.422;14.912;2022-10-16T06:05:51;10.57;;;5.05;;
66626;SDS011;53498;50.422;14.912;2022-10-16T06:08:19;7.28;;;4.13;;
66626;SDS011;53498;50.422;14.912;2022-10-16T06:10:46;9.38;;;5.88;;
66626;SDS011;53498;50.422;14.912;2022-10-16T06:13:13;6.75;;;4.85;;
66626;SDS011;53498;50.422;14.912;2022-10-16T06:15:39;8.85;;;5.70;;
66626;SDS011;53498;50.422;14.912;2022-10-16T06:18:07;8.38;;;6.07;;
66626;SDS011;53498;50.422;14.912;2022-10-16T06:20:34;11.05;;;6.32;;
66626;SDS011;53498;50.422;14.912;2022-10-16T06:23:00;9.90;;;5.68;;
66626;SDS011;53498;50.422;14.912;2022-10-16T06:25:28;9.15;;;5.57;;
66626;SDS011;53498;50.422;14.912;2022-10-16T06:27:54;7.78;;;5.30;;
66626;SDS011;53498;50.422;14.912;2022-10-16T06:30:19;8.18;;;5.72;;
66626;SDS011;53498;50.422;14.912;2022-10-16T06:32:45;7.40;;;5.10;;
66626;SDS011;53498;50.422;14.912;2022-10-16T06:35:11;7.10;;;4.90;;
66626;SDS011;53498;50.422;14.912;2022-10-16T06:37:36;7.05;;;4.45;;
66626;SDS011;53498;50.422;14.912;2022-10-16T06:40:02;8.50;;;5.45;;
66626;SDS011;53498;50.422;14.912;2022-10-16T06:42:29;7.68;;;5.85;;
66626;SDS011;53498;50.422;14.912;2022-10-16T06:44:55;7.28;;;4.90;;
66626;SDS011;53498;50.422;14.912;2022-10-16T06:47:21;6.72;;;4.75;;
66626;SDS011;53498;50.422;14.912;2022-10-16T06:49:46;7.60;;;5.45;;
66626;SDS011;53498;50.422;14.912;2022-10-16T06:52:12;8.45;;;5.47;;
66626;SDS011;53498;50.422;14.912;2022-10-16T06:54:37;8.43;;;5.03;;
66626;SDS011;53498;50.422;14.912;2022-10-16T06:57:03;8.05;;;5.63;;
66626;SDS011;53498;50.422;14.912;2022-10-16T06:59:28;8.70;;;5.95;;
66626;SDS011;53498;50.422;14.912;2022-10-16T07:01:54;8.05;;;5.28;;
66626;SDS011;53498;50.422;14.912;2022-10-16T07:04:19;8.18;;;6.30;;
66626;SDS011;53498;50.422;14.912;2022-10-16T07:06:45;8.25;;;5.68;;
66626;SDS011;53498;50.422;14.912;2022-10-16T07:09:11;8.25;;;5.47;;
66626;SDS011;53498;50.422;14.912;2022-10-16T07:11:38;7.93;;;5.20;;
66626;SDS011;53498;50.422;14.912;2022-10-16T07:14:05;6.68;;;5.13;;
66626;SDS011;53498;50.422;14.912;2022-10-16T07:16:40;7.43;;;5.25;;
66626;SDS011;53498;50.422;14.912;2022-10-16T07:19:05;7.78;;;4.97;;
66626;SDS011;53498;50.422;14.912;2022-10-16T07:21:33;5.50;;;4.72;;
66626;SDS011;53498;50.422;14.912;2022-10-16T07:24:00;8.80;;;4.68;;
66626;SDS011;53498;50.422;14.912;2022-10-16T07:26:27;6.88;;;5.13;;
66626;SDS011;53498;50.422;14.912;2022-10-16T07:28:55;6.65;;;4.50;;
66626;SDS011;53498;50.422;14.912;2022-10-16T07:31:22;6.97;;;4.32;;
66626;SDS011;53498;50.422;14.912;2022-10-16T07:33:49;6.70;;;4.93;;
66626;SDS011;53498;50.422;14.912;2022-10-16T07:36:16;6.43;;;4.97;;
66626;SDS011;53498;50.422;14.912;2022-10-16T07:38:43;6.85;;;6.15;;
66626;SDS011;53498;50.422;14.912;2022-10-16T07:41:11;5.72;;;4.55;;
66626;SDS011;53498;50.422;14.912;2022-10-16T07:43:39;7.38;;;5.20;;
66626;SDS011;53498;50.422;14.912;2022-10-16T07:46:06;6.22;;;4.70;;
66626;SDS011;53498;50.422;14.912;2022-10-16T07:48:32;6.05;;;4.75;;
66626;SDS011;53498;50.422;14.912;2022-10-16T07:51:03;7.22;;;5.10;;
66626;SDS011;53498;50.422;14.912;2022-10-16T07:53:31;7.43;;;4.75;;
66626;SDS011;53498;50.422;14.912;2022-10-16T07:56:00;6.57;;;4.15;;
66626;SDS011;53498;50.422;14.912;2022-10-16T07:58:28;6.13;;;4.80;;
66626;SDS011;53498;50.422;14.912;2022-10-16T08:00:54;6.93;;;4.97;;
66626;SDS011;53498;50.422;14.912;2022-10-16T08:03:24;5.47;;;4.50;;
66626;SDS011;53498;50.422;14.912;2022-10-16T08:05:50;6.53;;;4.30;;
66626;SDS011;53498;50.422;14.912;2022-10-16T08:08:17;6.30;;;5.30;;
66626;SDS011;53498;50.422;14.912;2022-10-16T08:10:43;5.85;;;4.53;;
66626;SDS011;53498;50.422;14.912;2022-10-16T08:13:10;6.70;;;4.65;;
66626;SDS011;53498;50.422;14.912;2022-10-16T08:15:36;5.85;;;4.82;;
66626;SDS011;53498;50.422;14.912;2022-10-16T08:18:03;6.68;;;4.75;;
66626;SDS011;53498;50.422;14.912;2022-10-16T08:20:30;8.32;;;5.32;;
66626;SDS011;53498;50.422;14.912;2022-10-16T08:22:58;6.88;;;4.80;;
66626;SDS011;53498;50.422;14.912;2022-10-16T08:25:24;8.20;;;4.90;;
66626;SDS011;53498;50.422;14.912;2022-10-16T08:27:53;8.68;;;4.72;;
66626;SDS011;53498;50.422;14.912;2022-10-16T08:30:20;12.82;;;7.40;;
66626;SDS011;53498;50.422;14.912;2022-10-16T08:32:46;7.18;;;5.03;;
66626;SDS011;53498;50.422;14.912;2022-10-16T08:35:12;5.57;;;4.88;;
66626;SDS011;53498;50.422;14.912;2022-10-16T08:37:39;6.93;;;4.38;;
66626;SDS011;53498;50.422;14.912;2022-10-16T08:40:06;7.47;;;4.93;;
66626;SDS011;53498;50.422;14.912;2022-10-16T08:51:31;5.80;;;4.55;;
66626;SDS011;53498;50.422;14.912;2022-10-16T08:54:04;6.40;;;4.18;;
66626;SDS011;53498;50.422;14.912;2022-10-16T08:56:44;5.00;;;4.33;;
66626;SDS011;53498;50.422;14.912;2022-10-16T08:59:10;5.75;;;4.05;;
66626;SDS011;53498;50.422;14.912;2022-10-16T09:01:38;4.95;;;4.30;;
66626;SDS011;53498;50.422;14.912;2022-10-16T09:04:14;5.10;;;4.20;;
66626;SDS011;53498;50.422;14.912;2022-10-16T09:07:17;8.13;;;4.82;;
66626;SDS011;53498;50.422;14.912;2022-10-16T09:18:05;5.40;;;3.92;;
66626;SDS011;53498;50.422;14.912;2022-10-16T09:20:57;5.70;;;4.25;;
66626;SDS011;53498;50.422;14.912;2022-10-16T09:23:32;5.05;;;3.85;;
66626;SDS011;53498;50.422;14.912;2022-10-16T09:26:03;6.00;;;4.15;;
66626;SDS011;53498;50.422;14.912;2022-10-16T09:28:31;7.45;;;5.53;;
66626;SDS011;53498;50.422;14.912;2022-10-16T09:30:56;5.25;;;4.25;;
66626;SDS011;53498;50.422;14.912;2022-10-16T09:33:24;5.03;;;4.28;;
66626;SDS011;53498;50.422;14.912;2022-10-16T09:35:54;5.53;;;4.95;;
66626;SDS011;53498;50.422;14.912;2022-10-16T09:38:33;5.30;;;4.50;;
66626;SDS011;53498;50.422;14.912;2022-10-16T09:41:02;6.07;;;4.68;;
66626;SDS011;53498;50.422;14.912;2022-10-16T09:46:08;12.65;;;5.82;;
66626;SDS011;53498;50.422;14.912;2022-10-16T09:48:49;7.70;;;4.72;;
66626;SDS011;53498;50.422;14.912;2022-10-16T09:51:27;6.50;;;4.65;;
66626;SDS011;53498;50.422;14.912;2022-10-16T09:56:33;5.65;;;4.60;;
66626;SDS011;53498;50.422;14.912;2022-10-16T09:59:11;6.53;;;5.47;;
66626;SDS011;53498;50.422;14.912;2022-10-16T10:01:39;6.93;;;4.32;;
66626;SDS011;53498;50.422;14.912;2022-10-16T10:04:07;3.83;;;3.38;;
66626;SDS011;53498;50.422;14.912;2022-10-16T10:06:35;7.35;;;3.22;;
66626;SDS011;53498;50.422;14.912;2022-10-16T10:16:52;3.42;;;2.88;;
66626;SDS011;53498;50.422;14.912;2022-10-16T10:19:26;5.25;;;3.75;;
66626;SDS011;53498;50.422;14.912;2022-10-16T10:21:53;3.42;;;2.92;;
66626;SDS011;53498;50.422;14.912;2022-10-16T10:24:19;3.53;;;2.78;;
66626;SDS011;53498;50.422;14.912;2022-10-16T10:26:56;3.60;;;3.30;;
66626;SDS011;53498;50.422;14.912;2022-10-16T10:32:13;3.20;;;2.85;;
66626;SDS011;53498;50.422;14.912;2022-10-16T10:34:49;3.47;;;2.92;;
66626;SDS011;53498;50.422;14.912;2022-10-16T10:40:09;4.07;;;3.17;;
66626;SDS011;53498;50.422;14.912;2022-10-16T10:42:47;4.03;;;3.28;;
66626;SDS011;53498;50.422;14.912;2022-10-16T10:50:55;4.03;;;2.85;;
66626;SDS011;53498;50.422;14.912;2022-10-16T11:02:22;5.00;;;3.65;;
66626;SDS011;53498;50.422;14.912;2022-10-16T11:07:58;3.40;;;3.10;;
66626;SDS011;53498;50.422;14.912;2022-10-16T11:10:34;4.03;;;3.30;;
66626;SDS011;53498;50.422;14.912;2022-10-16T11:15:58;3.38;;;2.95;;
66626;SDS011;53498;50.422;14.912;2022-10-16T11:18:30;4.05;;;3.60;;
66626;SDS011;53498;50.422;14.912;2022-10-16T11:21:08;3.92;;;2.88;;
66626;SDS011;53498;50.422;14.912;2022-10-16T11:23:47;4.00;;;3.60;;
66626;SDS011;53498;50.422;14.912;2022-10-16T11:26:21;3.22;;;2.92;;
66626;SDS011;53498;50.422;14.912;2022-10-16T11:28:51;5.00;;;4.28;;
66626;SDS011;53498;50.422;14.912;2022-10-16T11:31:40;5.22;;;4.10;;
66626;SDS011;53498;50.422;14.912;2022-10-16T11:34:15;3.45;;;2.80;;
66626;SDS011;53498;50.422;14.912;2022-10-16T11:36:53;4.53;;;2.75;;
66626;SDS011;53498;50.422;14.912;2022-10-16T11:41:52;4.88;;;3.35;;
66626;SDS011;53498;50.422;14.912;2022-10-16T11:49:47;3.90;;;2.50;;
66626;SDS011;53498;50.422;14.912;2022-10-16T11:54:54;3.38;;;2.33;;
66626;SDS011;53498;50.422;14.912;2022-10-16T11:57:26;2.40;;;2.20;;
66626;SDS011;53498;50.422;14.912;2022-10-16T11:59:55;2.05;;;1.83;;
66626;SDS011;53498;50.422;14.912;2022-10-16T12:02:30;4.85;;;2.28;;
66626;SDS011;53498;50.422;14.912;2022-10-16T12:05:23;2.90;;;1.75;;
66626;SDS011;53498;50.422;14.912;2022-10-16T12:08:09;2.90;;;1.85;;
66626;SDS011;53498;50.422;14.912;2022-10-16T12:10:38;4.15;;;1.90;;
66626;SDS011;53498;50.422;14.912;2022-10-16T12:18:44;3.10;;;1.98;;
66626;SDS011;53498;50.422;14.912;2022-10-16T12:21:11;2.95;;;1.95;;
66626;SDS011;53498;50.422;14.912;2022-10-16T12:26:26;3.47;;;1.98;;
66626;SDS011;53498;50.422;14.912;2022-10-16T12:28:55;4.63;;;1.80;;
66626;SDS011;53498;50.422;14.912;2022-10-16T12:31:36;3.22;;;1.80;;
66626;SDS011;53498;50.422;14.912;2022-10-16T12:34:14;3.25;;;2.00;;
66626;SDS011;53498;50.422;14.912;2022-10-16T12:36:50;1.48;;;1.30;;
66626;SDS011;53498;50.422;14.912;2022-10-16T12:39:27;2.10;;;1.70;;
66626;SDS011;53498;50.422;14.912;2022-10-16T12:42:03;1.73;;;1.45;;
66626;SDS011;53498;50.422;14.912;2022-10-16T12:44:34;1.65;;;1.30;;
66626;SDS011;53498;50.422;14.912;2022-10-16T12:47:01;1.50;;;1.40;;
66626;SDS011;53498;50.422;14.912;2022-10-16T12:49:48;2.53;;;1.40;;
66626;SDS011;53498;50.422;14.912;2022-10-16T12:54:59;3.60;;;1.73;;
66626;SDS011;53498;50.422;14.912;2022-10-16T12:57:38;3.05;;;2.53;;
66626;SDS011;53498;50.422;14.912;2022-10-16T13:00:48;2.70;;;1.55;;
66626;SDS011;53498;50.422;14.912;2022-10-16T13:03:40;5.97;;;2.92;;
66626;SDS011;53498;50.422;14.912;2022-10-16T13:06:30;2.58;;;1.70;;
66626;SDS011;53498;50.422;14.912;2022-10-16T13:09:13;3.50;;;1.60;;
66626;SDS011;53498;50.422;14.912;2022-10-16T13:14:39;1.60;;;1.48;;
66626;SDS011;53498;50.422;14.912;2022-10-16T13:28:05;1.50;;;1.40;;
66626;SDS011;53498;50.422;14.912;2022-10-16T13:33:16;4.57;;;1.98;;
66626;SDS011;53498;50.422;14.912;2022-10-16T13:35:48;2.80;;;1.77;;
66626;SDS011;53498;50.422;14.912;2022-10-16T13:38:17;2.55;;;1.20;;
66626;SDS011;53498;50.422;14.912;2022-10-16T13:40:54;2.17;;;1.38;;
66626;SDS011;53498;50.422;14.912;2022-10-16T13:43:40;1.75;;;1.60;;
66626;SDS011;53498;50.422;14.912;2022-10-16T13:46:12;2.63;;;1.85;;
66626;SDS011;53498;50.422;14.912;2022-10-16T13:48:40;3.20;;;1.60;;
66626;SDS011;53498;50.422;14.912;2022-10-16T13:51:17;3.35;;;1.90;;
66626;SDS011;53498;50.422;14.912;2022-10-16T13:53:44;2.42;;;1.65;;
66626;SDS011;53498;50.422;14.912;2022-10-16T13:56:11;2.88;;;1.90;;
66626;SDS011;53498;50.422;14.912;2022-10-16T13:59:00;2.92;;;1.52;;
66626;SDS011;53498;50.422;14.912;2022-10-16T14:04:01;4.13;;;2.40;;
66626;SDS011;53498;50.422;14.912;2022-10-16T14:06:28;2.22;;;1.60;;
66626;SDS011;53498;50.422;14.912;2022-10-16T14:11:42;2.17;;;1.70;;
66626;SDS011;53498;50.422;14.912;2022-10-16T14:14:13;2.10;;;1.55;;
66626;SDS011;53498;50.422;14.912;2022-10-16T14:16:40;4.13;;;2.05;;
66626;SDS011;53498;50.422;14.912;2022-10-16T14:19:16;5.03;;;2.03;;
66626;SDS011;53498;50.422;14.912;2022-10-16T14:21:46;5.28;;;2.13;;
66626;SDS011;53498;50.422;14.912;2022-10-16T14:24:12;3.70;;;2.08;;
66626;SDS011;53498;50.422;14.912;2022-10-16T14:26:58;4.07;;;2.42;;
66626;SDS011;53498;50.422;14.912;2022-10-16T14:29:26;3.70;;;1.85;;
66626;SDS011;53498;50.422;14.912;2022-10-16T14:31:58;4.90;;;2.20;;
66626;SDS011;53498;50.422;14.912;2022-10-16T14:34:27;3.47;;;2.00;;
66626;SDS011;53498;50.422;14.912;2022-10-16T14:36:59;4.72;;;2.67;;
66626;SDS011;53498;50.422;14.912;2022-10-16T14:39:32;4.88;;;2.30;;
66626;SDS011;53498;50.422;14.912;2022-10-16T14:41:58;2.28;;;1.63;;
66626;SDS011;53498;50.422;14.912;2022-10-16T14:44:33;2.92;;;1.70;;
66626;SDS011;53498;50.422;14.912;2022-10-16T14:47:06;2.83;;;1.63;;
66626;SDS011;53498;50.422;14.912;2022-10-16T14:49:35;2.22;;;1.13;;
66626;SDS011;53498;50.422;14.912;2022-10-16T14:52:00;2.83;;;1.80;;
66626;SDS011;53498;50.422;14.912;2022-10-16T14:54:27;2.97;;;1.88;;
66626;SDS011;53498;50.422;14.912;2022-10-16T14:56:53;2.03;;;1.48;;
66626;SDS011;53498;50.422;14.912;2022-10-16T14:59:40;1.95;;;1.60;;
66626;SDS011;53498;50.422;14.912;2022-10-16T15:07:40;2.60;;;1.98;;
66626;SDS011;53498;50.422;14.912;2022-10-16T15:10:06;3.20;;;2.17;;
66626;SDS011;53498;50.422;14.912;2022-10-16T15:12:32;2.22;;;2.03;;
66626;SDS011;53498;50.422;14.912;2022-10-16T15:14:58;2.65;;;1.70;;
66626;SDS011;53498;50.422;14.912;2022-10-16T15:17:23;2.22;;;1.88;;
66626;SDS011;53498;50.422;14.912;2022-10-16T15:19:49;5.03;;;2.60;;
66626;SDS011;53498;50.422;14.912;2022-10-16T15:22:16;2.85;;;2.20;;
66626;SDS011;53498;50.422;14.912;2022-10-16T15:24:42;3.80;;;2.65;;
66626;SDS011;53498;50.422;14.912;2022-10-16T15:27:08;5.25;;;3.75;;
66626;SDS011;53498;50.422;14.912;2022-10-16T15:29:34;5.65;;;3.45;;
66626;SDS011;53498;50.422;14.912;2022-10-16T15:31:59;4.15;;;3.30;;
66626;SDS011;53498;50.422;14.912;2022-10-16T15:34:25;5.90;;;3.25;;
66626;SDS011;53498;50.422;14.912;2022-10-16T15:36:50;5.25;;;3.25;;
66626;SDS011;53498;50.422;14.912;2022-10-16T15:39:17;4.65;;;3.20;;
66626;SDS011;53498;50.422;14.912;2022-10-16T15:41:45;4.28;;;3.53;;
66626;SDS011;53498;50.422;14.912;2022-10-16T15:44:16;5.20;;;3.15;;
66626;SDS011;53498;50.422;14.912;2022-10-16T15:46:42;4.80;;;3.70;;
66626;SDS011;53498;50.422;14.912;2022-10-16T15:49:08;4.00;;;2.95;;
66626;SDS011;53498;50.422;14.912;2022-10-16T15:51:37;5.75;;;4.13;;
66626;SDS011;53498;50.422;14.912;2022-10-16T15:54:03;5.57;;;4.03;;
66626;SDS011;53498;50.422;14.912;2022-10-16T15:56:29;6.93;;;4.82;;
66626;SDS011;53498;50.422;14.912;2022-10-16T15:58:58;7.57;;;4.82;;
66626;SDS011;53498;50.422;14.912;2022-10-16T16:01:25;6.97;;;4.57;;
66626;SDS011;53498;50.422;14.912;2022-10-16T16:03:57;6.13;;;4.60;;
66626;SDS011;53498;50.422;14.912;2022-10-16T16:06:22;8.10;;;5.05;;
66626;SDS011;53498;50.422;14.912;2022-10-16T16:08:49;8.70;;;5.63;;
66626;SDS011;53498;50.422;14.912;2022-10-16T16:11:16;7.63;;;4.78;;
66626;SDS011;53498;50.422;14.912;2022-10-16T16:13:43;12.10;;;5.28;;
66626;SDS011;53498;50.422;14.912;2022-10-16T16:16:17;6.55;;;4.50;;
66626;SDS011;53498;50.422;14.912;2022-10-16T16:18:45;8.00;;;4.72;;
66626;SDS011;53498;50.422;14.912;2022-10-16T16:21:11;7.13;;;5.00;;
66626;SDS011;53498;50.422;14.912;2022-10-16T16:23:38;8.23;;;5.63;;
66626;SDS011;53498;50.422;14.912;2022-10-16T16:26:07;6.00;;;4.15;;
66626;SDS011;53498;50.422;14.912;2022-10-16T16:28:35;9.15;;;4.80;;
66626;SDS011;53498;50.422;14.912;2022-10-16T16:31:01;6.43;;;4.55;;
66626;SDS011;53498;50.422;14.912;2022-10-16T16:33:28;7.25;;;4.40;;
66626;SDS011;53498;50.422;14.912;2022-10-16T16:36:00;5.97;;;4.40;;
66626;SDS011;53498;50.422;14.912;2022-10-16T16:38:28;6.82;;;4.63;;
66626;SDS011;53498;50.422;14.912;2022-10-16T16:40:53;6.93;;;4.65;;
66626;SDS011;53498;50.422;14.912;2022-10-16T16:43:26;5.70;;;4.13;;
66626;SDS011;53498;50.422;14.912;2022-10-16T16:45:53;5.35;;;3.83;;